Pagina principale
METAR-TAF:

METAR-TAF

Aeroporti :

Aeroporto di Jersey

Jersey,

latitudine: 49-13N, longitudine: 002-12W, altezza: 84 m

Osservazione

Il bollettino è stato emesso 30 minuti fa, alle 22:20 UTC
Vento 4 kt da nord/nord-ovest
Temperature 13°C
Umidità 88%
Pressione 1028 hPa
Visibilità 10 km o più

METAR: EGJJ 202220Z AUTO 33004KT 9999 NCD 13/11 Q1028

Ora: 23:50 (22:50 UTC)

Previsione

Il bollettino è stato emesso 2 ore e 47 minuti fa, alle 20:03 UTC
Previsione valida dal 20 alle 21 UTC al 21 alle 06 UTC
Vento 5 kt da nord-ovest
Visibilità 10 km o più
nessuna nube inferiore a 1500 m e nessun cumulonembo

TAF: EGJJ 202003Z 2021/2106 32005KT CAVOK

Osservazioni e previsioni meteorologiche di più di 4000 aeroporti (messaggi METAR e TAF).

Le stazioni disponibili sono rappresentate dai dischi gialli e rossi sulla carta.

Puntare il mouse per vedere il nome della stazione.

Clicca sopra per visualizzare le osservazioni e previsioni meteorologiche.

Per cambiare la mappa : fare clic sui pulsanti verdi con una croce nera per ingrandire, il pulsante verde con un trattino per diminuire, o sulla freccia verde per le mappe adiacenti.


METAR-TAF: